Time;durP1;ratioP1;P1;durP2;ratioP2;P2;SDS_P1;SDS_P2;PMS_P1;PMS_P2;Temp;Humidity;BMP_temperature;BMP_pressure;BME280_temperature;BME280_humidity;BME280_pressure;Samples;Min_cycle;Max_cycle;Signal;HPM_P1;HPM_P2
2022/01/29 00:00:07;;;;;;;20.47;3.53;;;;;;;-0.42;100.00;97744.28;10564654;22;20329;-64
2022/01/29 00:05:12;;;;;;;14.90;3.20;;;;;;;-0.49;100.00;97719.72;10534782;28;20226;-65
2022/01/29 00:10:14;;;;;;;27.53;3.87;;;;;;;-0.50;100.00;97710.31;10534420;28;20213;-64
2022/01/29 00:15:14;;;;;;;15.57;3.17;;;;;;;-0.53;100.00;97709.63;10534316;28;20174;-64
2022/01/29 00:20:15;;;;;;;25.23;3.60;;;;;;;-0.45;100.00;97698.09;10534499;28;20622;-64
2022/01/29 00:25:15;;;;;;;20.80;3.40;;;;;;;-0.56;100.00;97695.94;10541460;28;20230;-64
2022/01/29 00:30:18;;;;;;;27.27;3.40;;;;;;;-0.57;100.00;97699.44;10543675;28;20210;-65
2022/01/29 00:35:18;;;;;;;22.47;3.90;;;;;;;-0.50;100.00;97700.03;10541751;28;20255;-65
2022/01/29 00:40:20;;;;;;;22.13;3.37;;;;;;;-0.58;100.00;97702.09;10541287;28;20376;-66
2022/01/29 00:45:21;;;;;;;18.83;4.40;;;;;;;-0.60;100.00;97696.16;10541175;28;20229;-66
2022/01/29 00:50:21;;;;;;;15.17;2.63;;;;;;;-0.54;100.00;97693.31;10540822;28;20198;-65
2022/01/29 00:55:21;;;;;;;24.23;3.87;;;;;;;-0.42;100.00;97685.09;10540699;28;20183;-65
2022/01/29 01:00:22;;;;;;;24.57;4.00;;;;;;;-0.47;100.00;97669.00;10540143;28;20275;-65
2022/01/29 01:05:22;;;;;;;11.73;2.70;;;;;;;-0.42;100.00;97663.66;10540279;28;20260;-65
2022/01/29 01:10:22;;;;;;;17.37;3.90;;;;;;;-0.45;100.00;97644.03;10540152;28;20683;-65
2022/01/29 01:15:23;;;;;;;19.30;3.87;;;;;;;-0.28;100.00;97622.72;10539343;28;20790;-65
2022/01/29 01:20:23;;;;;;;15.17;3.10;;;;;;;-0.26;100.00;97630.38;10539506;28;20700;-65
2022/01/29 01:25:24;;;;;;;17.43;3.23;;;;;;;-0.27;100.00;97603.78;10539551;28;20218;-65
2022/01/29 01:30:24;;;;;;;18.17;4.00;;;;;;;-0.24;100.00;97597.69;10539019;28;20221;-64
2022/01/29 01:35:30;;;;;;;12.23;2.53;;;;;;;-0.20;100.00;97612.06;10538139;28;20270;-62
2022/01/29 01:40:30;;;;;;;18.53;2.80;;;;;;;-0.13;100.00;97607.50;10538685;28;20553;-64
2022/01/29 01:45:30;;;;;;;20.27;3.70;;;;;;;-0.07;100.00;97613.22;10538612;28;20319;-64
2022/01/29 01:50:31;;;;;;;15.30;3.30;;;;;;;0.05;100.00;97588.66;10538258;28;20267;-64
2022/01/29 01:55:32;;;;;;;25.10;3.53;;;;;;;0.09;100.00;97579.88;10538408;28;20194;-63
2022/01/29 02:00:32;;;;;;;16.67;3.33;;;;;;;0.14;100.00;97592.56;10540019;28;20238;-64
2022/01/29 02:05:33;;;;;;;22.73;4.20;;;;;;;0.15;100.00;97586.47;10537859;28;20189;-65
2022/01/29 02:10:33;;;;;;;18.30;3.43;;;;;;;0.20;100.00;97581.97;10537837;28;20206;-63
2022/01/29 02:15:34;;;;;;;14.97;2.77;;;;;;;0.24;100.00;97552.56;10537250;28;20209;-64
2022/01/29 02:20:34;;;;;;;13.97;2.20;;;;;;;0.20;100.00;97537.31;10537379;28;20217;-64
2022/01/29 02:25:38;;;;;;;20.20;3.47;;;;;;;0.21;100.00;97526.94;10537525;28;20187;-64
2022/01/29 02:30:40;;;;;;;18.90;3.27;;;;;;;0.26;100.00;97506.97;10536251;28;20218;-64
2022/01/29 02:35:45;;;;;;;10.87;3.33;;;;;;;0.25;100.00;97504.47;10536537;28;20261;-64
2022/01/29 02:40:48;;;;;;;15.70;3.47;;;;;;;0.19;100.00;97490.09;10535807;28;20197;-65
2022/01/29 02:45:51;;;;;;;19.13;2.97;;;;;;;0.28;100.00;97481.94;10536163;28;20191;-65
2022/01/29 02:50:52;;;;;;;11.03;2.80;;;;;;;0.34;100.00;97480.81;10518242;28;20213;-64
2022/01/29 02:55:52;;;;;;;18.97;2.70;;;;;;;0.28;100.00;97470.81;10536455;28;20193;-64
2022/01/29 03:00:52;;;;;;;20.57;3.00;;;;;;;0.34;100.00;97458.44;10535798;28;20233;-64
2022/01/29 03:05:53;;;;;;;11.17;2.97;;;;;;;0.33;100.00;97456.78;10536023;28;20222;-65
2022/01/29 03:10:53;;;;;;;14.87;3.23;;;;;;;0.38;100.00;97458.31;10535918;28;20255;-65
2022/01/29 03:15:54;;;;;;;13.97;4.03;;;;;;;0.43;100.00;97456.31;10535252;28;20268;-64
2022/01/29 03:20:54;;;;;;;13.33;2.80;;;;;;;0.45;100.00;97439.88;10535572;28;20582;-65
2022/01/29 03:25:55;;;;;;;11.07;2.53;;;;;;;0.57;100.00;97425.56;10535796;28;20596;-64
2022/01/29 03:30:55;;;;;;;17.90;3.67;;;;;;;0.57;100.00;97438.44;10535344;28;20202;-65
2022/01/29 03:35:56;;;;;;;7.97;2.97;;;;;;;0.64;100.00;97431.22;10535591;28;20191;-64
2022/01/29 03:40:58;;;;;;;17.40;3.80;;;;;;;0.61;100.00;97433.97;10534873;28;20259;-65
2022/01/29 03:45:58;;;;;;;11.77;3.37;;;;;;;0.71;100.00;97424.84;10535328;28;20190;-65
2022/01/29 03:50:59;;;;;;;14.20;3.77;;;;;;;0.67;100.00;97420.75;10536652;28;20716;-64
2022/01/29 03:55:59;;;;;;;13.27;3.40;;;;;;;0.75;100.00;97412.63;10540659;28;20545;-64
2022/01/29 04:00:59;;;;;;;19.77;3.97;;;;;;;0.79;100.00;97401.25;10544744;28;20233;-61
2022/01/29 04:06:00;;;;;;;13.67;3.53;;;;;;;0.78;100.00;97389.28;10541933;28;20209;-64
2022/01/29 04:11:00;;;;;;;7.83;3.03;;;;;;;0.84;100.00;97386.38;10542605;28;20207;-63
2022/01/29 04:16:00;;;;;;;14.50;4.13;;;;;;;0.76;100.00;97378.22;10541914;28;20237;-63
2022/01/29 04:21:02;;;;;;;12.47;4.20;;;;;;;0.75;100.00;97381.69;10542030;28;20221;-63
2022/01/29 04:26:04;;;;;;;13.67;3.20;;;;;;;0.76;100.00;97371.28;10542130;28;20604;-62
2022/01/29 04:31:15;;;;;;;11.00;3.63;;;;;;;0.81;100.00;97365.91;10541537;28;20210;-63
2022/01/29 04:36:16;;;;;;;9.73;3.80;;;;;;;0.82;100.00;97339.19;10541740;28;20290;-63
2022/01/29 04:41:16;;;;;;;12.43;3.67;;;;;;;0.88;100.00;97336.31;10541234;28;20789;-63
2022/01/29 04:46:16;;;;;;;10.33;3.53;;;;;;;0.97;100.00;97333.22;10541449;28;20191;-63
2022/01/29 04:51:17;;;;;;;14.93;3.90;;;;;;;1.01;100.00;97323.56;10540829;28;20244;-62
2022/01/29 04:56:17;;;;;;;11.20;4.30;;;;;;;0.95;100.00;97319.59;10540822;28;20199;-62
2022/01/29 05:01:18;;;;;;;13.83;4.60;;;;;;;0.97;100.00;97301.44;10540211;28;20237;-61
2022/01/29 05:06:19;;;;;;;9.73;3.67;;;;;;;0.89;100.00;97307.84;10540260;28;20202;-62
2022/01/29 05:11:19;;;;;;;9.27;4.63;;;;;;;0.92;100.00;97311.16;10539986;28;20212;-63
2022/01/29 05:16:39;;;;;;;10.57;5.67;;;;;;;0.83;100.00;97291.88;10539385;28;20187;-63
2022/01/29 05:27:02;;;;;;;15.30;7.87;;;;;;;0.84;100.00;97266.00;10539425;28;20281;-64
2022/01/29 05:32:05;;;;;;;10.73;6.43;;;;;;;0.89;100.00;97268.34;10539446;28;20259;-63
2022/01/29 05:37:06;;;;;;;11.40;6.83;;;;;;;0.91;100.00;97266.50;10520912;28;20612;-62
2022/01/29 05:42:07;;;;;;;16.13;6.37;;;;;;;0.97;100.00;97255.84;10538857;28;20223;-63
2022/01/29 05:47:07;;;;;;;16.47;8.13;;;;;;;0.98;100.00;97246.34;10538980;28;20668;-63
2022/01/29 05:52:07;;;;;;;16.87;9.90;;;;;;;1.08;100.00;97239.78;10538286;28;20209;-62
2022/01/29 05:57:09;;;;;;;16.67;8.83;;;;;;;1.10;100.00;97229.38;10538643;28;20284;-64
2022/01/29 06:02:09;;;;;;;15.53;8.70;;;;;;;1.12;100.00;97218.06;10558868;22;20282;-60
2022/01/29 06:07:10;;;;;;;14.40;8.77;;;;;;;1.18;100.00;97209.13;10538082;28;20227;-57
2022/01/29 06:12:10;;;;;;;17.10;10.33;;;;;;;1.15;100.00;97211.88;10537593;28;20210;-55
2022/01/29 06:17:11;;;;;;;17.13;9.27;;;;;;;1.17;100.00;97203.13;10537275;28;20220;-59
2022/01/29 06:22:13;;;;;;;17.60;9.37;;;;;;;1.23;100.00;97195.06;10536288;28;20234;-59
2022/01/29 06:27:14;;;;;;;18.40;9.53;;;;;;;1.30;100.00;97182.63;10533628;28;20191;-56
2022/01/29 06:32:17;;;;;;;16.83;9.60;;;;;;;1.29;100.00;97186.13;10500847;28;20206;-62
2022/01/29 06:37:17;;;;;;;15.33;9.17;;;;;;;1.36;100.00;97179.72;10495260;28;20206;-61
2022/01/29 06:42:17;;;;;;;14.83;7.43;;;;;;;1.41;100.00;97177.69;10494471;28;20566;-61
2022/01/29 06:47:18;;;;;;;16.27;7.90;;;;;;;1.50;100.00;97170.31;10497274;28;20201;-62
2022/01/29 06:52:18;;;;;;;19.10;9.20;;;;;;;1.46;100.00;97161.13;10499476;28;20211;-61
2022/01/29 06:57:19;;;;;;;13.60;8.10;;;;;;;1.52;100.00;97145.28;10494585;28;20240;-61
2022/01/29 07:02:19;;;;;;;14.73;10.20;;;;;;;1.57;100.00;97145.81;10493859;28;20252;-61
2022/01/29 07:07:19;;;;;;;13.67;10.60;;;;;;;1.59;100.00;97138.81;10494191;28;20208;-61
2022/01/29 07:12:20;;;;;;;16.53;10.37;;;;;;;1.62;100.00;97130.88;10493587;28;20293;-61
2022/01/29 07:17:22;;;;;;;17.80;10.63;;;;;;;1.63;100.00;97135.13;10493682;28;20237;-61
2022/01/29 07:22:22;;;;;;;14.77;8.80;;;;;;;1.65;100.00;97122.94;10493453;28;20231;-61
2022/01/29 07:27:23;;;;;;;11.77;6.93;;;;;;;1.58;100.00;97112.16;10483467;28;20676;-61
2022/01/29 07:32:23;;;;;;;11.63;7.47;;;;;;;1.62;100.00;97096.50;10495645;28;20210;-61
2022/01/29 07:37:24;;;;;;;9.90;5.50;;;;;;;1.67;100.00;97084.97;10498599;28;20191;-61
2022/01/29 07:42:24;;;;;;;14.60;8.20;;;;;;;1.58;100.00;97083.75;10498700;28;20227;-61
2022/01/29 07:47:24;;;;;;;13.17;8.80;;;;;;;1.52;100.00;97091.06;10499334;28;20190;-61
2022/01/29 07:52:25;;;;;;;16.10;9.83;;;;;;;1.38;100.00;97069.47;10495633;28;20214;-61
2022/01/29 07:57:25;;;;;;;13.40;7.77;;;;;;;1.27;100.00;97071.00;10497776;28;20210;-61
2022/01/29 08:02:26;;;;;;;13.93;8.43;;;;;;;1.29;100.00;97053.66;10499175;28;20243;-60
2022/01/29 08:07:26;;;;;;;9.03;5.40;;;;;;;1.42;100.00;97047.72;10499027;28;20203;-58
2022/01/29 08:12:26;;;;;;;16.57;7.20;;;;;;;1.45;100.00;97051.84;10495292;28;20580;-60
2022/01/29 08:17:27;;;;;;;20.33;10.83;;;;;;;1.50;100.00;97054.16;10496313;28;20252;-60
2022/01/29 08:22:28;;;;;;;12.73;7.73;;;;;;;1.41;100.00;97032.31;10498242;28;20222;-59
2022/01/29 08:27:28;;;;;;;13.27;8.23;;;;;;;1.31;100.00;97046.69;10491003;28;20203;-59
2022/01/29 08:32:28;;;;;;;10.00;6.90;;;;;;;1.25;100.00;97024.63;10455386;28;20700;-62
2022/01/29 08:37:29;;;;;;;9.87;6.37;;;;;;;1.23;100.00;97013.59;10462973;28;20873;-62
2022/01/29 08:42:29;;;;;;;10.63;6.00;;;;;;;1.23;100.00;97016.16;10463604;28;20722;-63
2022/01/29 08:47:30;;;;;;;8.47;6.43;;;;;;;1.25;100.00;97011.72;10463385;28;20728;-62
2022/01/29 08:52:30;;;;;;;8.53;5.60;;;;;;;1.35;100.00;97002.53;10457697;28;20295;-63
2022/01/29 08:57:30;;;;;;;8.87;5.97;;;;;;;1.35;100.00;96994.78;10476068;28;20186;-61
2022/01/29 09:02:31;;;;;;;8.43;5.40;;;;;;;1.45;100.00;96973.56;10499201;28;20234;-62
2022/01/29 09:07:31;;;;;;;8.73;5.33;;;;;;;1.43;100.00;96964.16;10538742;28;20279;-61
2022/01/29 09:12:32;;;;;;;8.03;5.10;;;;;;;1.45;100.00;96969.22;10538207;28;20263;-62
2022/01/29 09:17:33;;;;;;;7.00;4.23;;;;;;;1.45;100.00;96950.34;10538090;28;20194;-62
2022/01/29 09:22:34;;;;;;;6.77;4.70;;;;;;;1.40;100.00;96951.44;10515109;28;20218;-60
2022/01/29 09:27:34;;;;;;;5.47;4.37;;;;;;;1.47;100.00;96944.19;10486045;28;20191;-62
2022/01/29 09:32:35;;;;;;;7.37;5.20;;;;;;;1.48;100.00;96927.75;10489298;28;20286;-61
2022/01/29 09:37:35;;;;;;;6.97;4.60;;;;;;;1.49;100.00;96936.34;10493104;28;20183;-61
2022/01/29 09:42:35;;;;;;;4.40;2.60;;;;;;;1.58;100.00;96928.03;10492357;28;20207;-62
2022/01/29 09:47:37;;;;;;;5.10;3.80;;;;;;;1.59;100.00;96912.44;10474148;28;20711;-62
2022/01/29 09:52:38;;;;;;;5.53;3.73;;;;;;;1.71;100.00;96913.41;10474789;28;20689;-62
2022/01/29 09:57:39;;;;;;;6.57;3.77;;;;;;;1.78;100.00;96906.09;10494169;28;20282;-62
2022/01/29 10:02:39;;;;;;;5.23;3.80;;;;;;;1.87;100.00;96890.03;10490945;28;20234;-60
2022/01/29 10:07:39;;;;;;;5.90;3.93;;;;;;;1.85;100.00;96884.09;10479593;28;20202;-62
2022/01/29 10:12:40;;;;;;;4.67;4.20;;;;;;;1.91;100.00;96890.66;10493813;28;20214;-59
2022/01/29 10:17:44;;;;;;;5.53;4.63;;;;;;;1.92;100.00;96863.91;10493971;28;20191;-61
2022/01/29 10:22:47;;;;;;;5.23;4.20;;;;;;;2.00;100.00;96864.22;10494560;28;20227;-61
2022/01/29 10:28:13;;;;;;;5.30;3.20;;;;;;;2.13;100.00;96852.16;10493787;28;20191;-61
2022/01/29 10:33:22;;;;;;;6.73;4.70;;;;;;;2.14;100.00;96853.81;10478097;28;20207;-60
2022/01/29 10:38:29;;;;;;;5.13;3.40;;;;;;;2.22;100.00;96840.41;10465540;28;20184;-61
2022/01/29 10:43:30;;;;;;;6.87;5.07;;;;;;;2.37;100.00;96858.41;10465872;28;20227;-58
2022/01/29 10:48:43;;;;;;;11.43;6.97;;;;;;;2.26;100.00;96841.00;10442162;28;20218;-60
2022/01/29 10:53:43;;;;;;;9.93;7.87;;;;;;;2.40;100.00;96840.09;10450796;28;20211;-60
2022/01/29 10:58:47;;;;;;;9.50;6.90;;;;;;;2.45;100.00;96831.09;10444249;28;20204;-60
2022/01/29 11:03:49;;;;;;;10.30;6.20;;;;;;;2.45;100.00;96819.91;10470914;28;20591;-58
2022/01/29 11:08:50;;;;;;;12.40;7.97;;;;;;;2.46;100.00;96800.91;10470410;28;20625;-61
2022/01/29 11:13:50;;;;;;;11.40;7.90;;;;;;;2.47;100.00;96799.97;10445891;28;20223;-61
2022/01/29 11:18:51;;;;;;;12.57;7.10;;;;;;;2.50;100.00;96799.75;10463544;28;20226;-59
2022/01/29 11:23:52;;;;;;;11.07;6.00;;;;;;;2.56;100.00;96757.97;10491505;28;20241;-61
2022/01/29 11:29:29;;;;;;;8.03;4.03;;;;;;;2.66;100.00;96774.53;10468508;28;20198;-62
2022/01/29 11:34:29;;;;;;;9.57;7.37;;;;;;;2.59;100.00;96754.31;10446399;28;20750;-61
2022/01/29 11:39:30;;;;;;;8.27;5.57;;;;;;;2.61;100.00;96731.78;10435424;28;20356;-63
2022/01/29 11:44:30;;;;;;;7.43;5.00;;;;;;;2.74;100.00;96727.44;10436053;28;20275;-62
2022/01/29 11:49:31;;;;;;;7.40;5.63;;;;;;;2.60;100.00;96740.47;10433146;28;20222;-62
2022/01/29 11:54:57;;;;;;;7.57;6.10;;;;;;;2.63;100.00;96730.75;10433818;28;20200;-62
2022/01/29 12:00:33;;;;;;;6.37;5.37;;;;;;;2.77;100.00;96709.09;10435538;28;20793;-62
2022/01/29 12:11:26;;;;;;;5.30;4.37;;;;;;;2.82;100.00;96717.34;10458491;23;20248;-62
2022/01/29 12:16:47;;;;;;;7.07;4.43;;;;;;;2.92;100.00;96702.00;10410101;28;20200;-62
2022/01/29 12:21:48;;;;;;;4.20;3.53;;;;;;;2.88;100.00;96697.16;10417856;28;20232;-62
2022/01/29 12:26:55;;;;;;;5.17;3.20;;;;;;;3.13;100.00;96676.34;10417571;28;20184;-63
2022/01/29 12:31:59;;;;;;;4.63;3.93;;;;;;;2.99;100.00;96661.00;10414788;28;20295;-61
2022/01/29 12:37:24;;;;;;;4.33;3.13;;;;;;;2.99;100.00;96640.28;10417188;28;20203;-61
2022/01/29 12:42:31;;;;;;;3.70;3.03;;;;;;;2.97;100.00;96668.88;10416835;28;20236;-61
2022/01/29 12:47:35;;;;;;;5.00;3.90;;;;;;;3.00;100.00;96641.94;10415190;28;20689;-61
2022/01/29 12:52:35;;;;;;;4.43;3.10;;;;;;;3.08;100.00;96607.72;10415679;28;20212;-59
2022/01/29 12:57:46;;;;;;;3.43;2.00;;;;;;;3.04;100.00;96607.13;10416393;28;20207;-61
2022/01/29 13:02:48;;;;;;;3.13;2.33;;;;;;;3.21;100.00;96609.28;10399754;28;20233;-59
2022/01/29 13:07:49;;;;;;;3.07;2.30;;;;;;;3.20;100.00;96593.88;10417068;28;20200;-60
2022/01/29 13:12:50;;;;;;;3.10;2.23;;;;;;;3.13;100.00;96593.50;10415394;28;20244;-60
2022/01/29 13:17:50;;;;;;;2.20;2.00;;;;;;;3.09;100.00;96571.38;10414351;28;20197;-61
2022/01/29 13:22:51;;;;;;;2.33;1.80;;;;;;;3.11;100.00;96576.44;10412128;28;20236;-61
2022/01/29 13:28:03;;;;;;;2.23;2.03;;;;;;;3.11;100.00;96561.75;10362467;28;20193;-61
2022/01/29 13:33:09;;;;;;;2.57;1.83;;;;;;;3.17;100.00;96574.25;10358796;28;20197;-59
2022/01/29 13:38:09;;;;;;;2.67;2.27;;;;;;;2.97;100.00;96567.09;10370366;28;20224;-62
2022/01/29 13:43:11;;;;;;;2.27;2.07;;;;;;;2.89;100.00;96543.56;10365441;28;20620;-62
2022/01/29 13:48:13;;;;;;;2.20;2.00;;;;;;;2.87;100.00;96540.28;10383529;28;20480;-62
2022/01/29 13:53:16;;;;;;;1.80;1.70;;;;;;;2.93;100.00;96529.47;10375883;28;20266;-62
2022/01/29 13:58:16;;;;;;;2.83;2.03;;;;;;;2.89;100.00;96525.47;10374391;28;20189;-63
2022/01/29 14:03:18;;;;;;;3.00;2.37;;;;;;;2.87;100.00;96523.00;10373845;28;20232;-62
2022/01/29 14:08:21;;;;;;;3.10;2.53;;;;;;;2.81;100.00;96507.91;10373827;28;20197;-62
2022/01/29 14:13:27;;;;;;;2.60;2.40;;;;;;;2.81;100.00;96526.03;10371803;28;20656;-62
2022/01/29 14:18:34;;;;;;;4.73;2.87;;;;;;;2.81;100.00;96503.56;10374058;28;20671;-60
2022/01/29 14:23:34;;;;;;;2.73;2.53;;;;;;;2.81;100.00;96513.91;10371091;28;20283;-62
2022/01/29 14:28:35;;;;;;;5.20;2.80;;;;;;;2.78;100.00;96483.09;10372738;28;20750;-61
2022/01/29 14:33:35;;;;;;;3.03;2.73;;;;;;;2.74;100.00;96486.88;10371558;28;20703;-62
2022/01/29 14:38:35;;;;;;;3.50;2.73;;;;;;;2.79;100.00;96520.97;10373250;28;20691;-62
2022/01/29 14:43:36;;;;;;;4.50;3.80;;;;;;;2.80;100.00;96535.56;10372289;28;20220;-62
2022/01/29 14:48:36;;;;;;;3.73;3.30;;;;;;;2.78;100.00;96537.41;10372626;28;20189;-62
2022/01/29 14:53:37;;;;;;;9.57;6.90;;;;;;;2.73;100.00;96539.53;10370530;28;20252;-62
2022/01/29 14:58:38;;;;;;;5.80;4.23;;;;;;;2.71;100.00;96494.84;10371160;28;20193;-62
2022/01/29 15:03:38;;;;;;;4.10;3.20;;;;;;;2.70;100.00;96459.56;10371167;28;20699;-59
2022/01/29 15:08:39;;;;;;;3.27;2.13;;;;;;;2.76;100.00;96464.28;10371137;28;20189;-63
2022/01/29 15:13:39;;;;;;;3.03;2.47;;;;;;;2.84;100.00;96474.06;10371746;28;20730;-61
2022/01/29 15:18:39;;;;;;;2.87;2.63;;;;;;;2.87;100.00;96449.75;10370596;28;20189;-61
2022/01/29 15:23:40;;;;;;;3.70;3.40;;;;;;;2.86;100.00;96438.53;10369870;28;20259;-62
2022/01/29 15:28:40;;;;;;;5.30;3.40;;;;;;;2.79;100.00;96435.59;10370157;28;20203;-63
2022/01/29 15:33:41;;;;;;;5.23;3.07;;;;;;;2.78;100.00;96415.03;10371450;28;20192;-61
2022/01/29 15:38:41;;;;;;;3.23;2.67;;;;;;;2.82;100.00;96412.09;10371195;28;20193;-63
2022/01/29 15:43:42;;;;;;;3.63;2.90;;;;;;;2.83;100.00;96381.88;10370752;28;20216;-62
2022/01/29 15:48:42;;;;;;;4.33;3.33;;;;;;;2.93;100.00;96369.06;10363444;28;20261;-61
2022/01/29 15:53:43;;;;;;;5.20;3.97;;;;;;;2.93;100.00;96366.47;10360557;28;20182;-62
2022/01/29 15:58:43;;;;;;;3.80;2.93;;;;;;;3.12;100.00;96371.06;10374531;28;20192;-62
2022/01/29 16:03:44;;;;;;;3.20;2.43;;;;;;;3.27;100.00;96390.56;10375044;28;20296;-62
2022/01/29 16:08:46;;;;;;;6.00;3.00;;;;;;;3.42;100.00;96380.78;10374326;28;20268;-63
2022/01/29 16:13:46;;;;;;;3.67;2.90;;;;;;;3.43;100.00;96389.38;10377443;28;20193;-62
2022/01/29 16:18:47;;;;;;;3.20;2.33;;;;;;;3.40;100.00;96374.91;10377183;28;20275;-62
2022/01/29 16:23:48;;;;;;;3.30;2.87;;;;;;;3.44;100.00;96372.91;10375938;28;20299;-63
2022/01/29 16:28:48;;;;;;;2.27;2.07;;;;;;;3.48;100.00;96363.97;10361105;28;20201;-62
2022/01/29 16:33:48;;;;;;;3.57;2.40;;;;;;;3.51;100.00;96358.53;10375741;28;20656;-60
2022/01/29 16:38:49;;;;;;;28.67;15.93;;;;;;;3.55;100.00;96341.78;10373377;28;20264;-63
2022/01/29 16:43:49;;;;;;;2.83;2.63;;;;;;;3.59;100.00;96344.97;10373181;28;20224;-63
2022/01/29 16:48:49;;;;;;;4.33;3.93;;;;;;;3.68;100.00;96360.59;10374539;28;20263;-62
2022/01/29 16:53:50;;;;;;;1.97;1.87;;;;;;;3.70;100.00;96382.00;10365284;28;20192;-63
2022/01/29 16:58:50;;;;;;;3.43;2.57;;;;;;;3.78;100.00;96378.81;10361796;28;20194;-61
2022/01/29 17:03:51;;;;;;;2.10;1.90;;;;;;;3.76;100.00;96359.97;10360300;28;20237;-64
2022/01/29 17:08:52;;;;;;;1.90;1.70;;;;;;;3.81;100.00;96346.66;10361473;28;20340;-63
2022/01/29 17:13:52;;;;;;;4.20;3.00;;;;;;;3.84;100.00;96318.72;10360571;28;20579;-60
2022/01/29 17:18:53;;;;;;;8.50;3.27;;;;;;;3.87;100.00;96326.25;10362381;28;20197;-62
2022/01/29 17:23:53;;;;;;;14.07;4.93;;;;;;;3.87;100.00;96318.47;10374712;28;20313;-60
2022/01/29 17:28:55;;;;;;;3.07;2.30;;;;;;;3.91;100.00;96303.53;10375157;28;20637;-60
2022/01/29 17:33:56;;;;;;;3.80;2.00;;;;;;;3.95;100.00;96306.66;10373338;28;20197;-63
2022/01/29 17:38:56;;;;;;;2.20;2.00;;;;;;;3.95;100.00;96298.91;10373368;28;20197;-62
2022/01/29 17:43:57;;;;;;;1.90;1.80;;;;;;;3.93;100.00;96297.25;10373656;28;20217;-63
2022/01/29 17:48:57;;;;;;;2.03;1.90;;;;;;;3.97;100.00;96307.38;10373147;28;20197;-62
2022/01/29 17:53:57;;;;;;;2.50;2.30;;;;;;;3.99;100.00;96297.72;10374117;28;20189;-62
2022/01/29 17:58:58;;;;;;;1.80;1.70;;;;;;;3.87;100.00;96287.38;10374770;28;20715;-60
2022/01/29 18:03:58;;;;;;;2.63;1.93;;;;;;;4.02;100.00;96271.53;10373477;28;20562;-60
2022/01/29 18:09:09;;;;;;;2.47;2.27;;;;;;;3.84;100.00;96266.91;10373166;28;20630;-61
2022/01/29 18:14:10;;;;;;;2.53;2.33;;;;;;;3.68;100.00;96275.13;10363596;28;20221;-59
2022/01/29 18:19:10;;;;;;;2.80;2.40;;;;;;;3.71;100.00;96261.09;10370964;28;20587;-61
2022/01/29 18:24:10;;;;;;;2.87;2.40;;;;;;;3.69;100.00;96266.41;10371849;28;20665;-61
2022/01/29 18:29:11;;;;;;;3.77;2.80;;;;;;;3.65;100.00;96253.84;10371652;28;20193;-61
2022/01/29 18:34:11;;;;;;;3.10;2.43;;;;;;;3.62;100.00;96233.34;10372067;28;20235;-60
2022/01/29 18:39:13;;;;;;;2.70;2.50;;;;;;;3.71;100.00;96237.78;10371155;28;20212;-61
2022/01/29 18:44:14;;;;;;;2.83;2.57;;;;;;;3.82;100.00;96234.31;10371140;28;20296;-61
2022/01/29 18:49:14;;;;;;;1.57;1.47;;;;;;;4.01;100.00;96254.34;10370791;28;20279;-63
2022/01/29 18:54:15;;;;;;;4.53;3.50;;;;;;;4.00;100.00;96257.91;10370486;28;20198;-63
2022/01/29 18:59:15;;;;;;;4.03;2.70;;;;;;;4.07;100.00;96259.84;10370920;28;20197;-64
2022/01/29 19:04:15;;;;;;;2.37;2.17;;;;;;;4.08;100.00;96252.88;10370489;28;20260;-64
2022/01/29 19:09:18;;;;;;;2.03;1.83;;;;;;;4.20;100.00;96258.81;10370346;28;20193;-64
2022/01/29 19:14:18;;;;;;;1.50;1.40;;;;;;;4.49;100.00;96243.41;10369330;28;20196;-64
2022/01/29 19:19:22;;;;;;;1.70;1.53;;;;;;;4.44;100.00;96243.78;10369271;28;20271;-64
2022/01/29 19:24:23;;;;;;;2.10;1.43;;;;;;;4.57;100.00;96250.53;10369378;28;20300;-64
2022/01/29 19:29:23;;;;;;;1.47;1.37;;;;;;;4.54;100.00;96254.19;10375914;28;20625;-64
2022/01/29 19:34:24;;;;;;;1.27;1.20;;;;;;;4.52;100.00;96230.19;10378003;28;20193;-64
2022/01/29 19:39:25;;;;;;;1.00;1.00;;;;;;;4.54;100.00;96207.50;10378129;28;20237;-64
2022/01/29 19:44:25;;;;;;;1.67;1.57;;;;;;;4.59;100.00;96191.56;10393739;28;20312;-64
2022/01/29 19:49:25;;;;;;;1.07;1.07;;;;;;;4.62;100.00;96214.63;10378979;28;20711;-61
2022/01/29 19:54:26;;;;;;;1.47;1.37;;;;;;;4.68;100.00;96208.09;10377023;28;20610;-63
2022/01/29 19:59:26;;;;;;;1.20;1.10;;;;;;;4.64;100.00;96189.41;10377410;28;20235;-64
2022/01/29 20:04:28;;;;;;;1.30;1.20;;;;;;;4.74;100.00;96199.78;10377217;28;20287;-61
2022/01/29 20:09:28;;;;;;;1.30;1.20;;;;;;;4.60;100.00;96172.44;10376948;28;20292;-63
2022/01/29 20:14:28;;;;;;;0.90;0.90;;;;;;;4.63;100.00;96190.34;10376110;28;20197;-61
2022/01/29 20:19:29;;;;;;;1.10;1.07;;;;;;;4.54;100.00;96176.38;10359176;28;20275;-63
2022/01/29 20:24:30;;;;;;;1.33;1.10;;;;;;;4.63;100.00;96172.19;10376383;28;20636;-62
2022/01/29 20:29:30;;;;;;;2.43;1.50;;;;;;;4.66;100.00;96197.84;10376368;28;20300;-60
2022/01/29 20:34:31;;;;;;;1.43;1.10;;;;;;;4.90;100.00;96212.25;10375157;28;20276;-62
2022/01/29 20:39:31;;;;;;;1.40;1.30;;;;;;;4.95;100.00;96218.69;10373745;28;20209;-63
2022/01/29 20:44:31;;;;;;;2.33;1.43;;;;;;;4.88;100.00;96170.84;10373819;28;20300;-59
2022/01/29 20:49:36;;;;;;;2.33;1.43;;;;;;;4.77;100.00;96164.00;10375563;28;20221;-61
2022/01/29 20:54:37;;;;;;;2.10;1.40;;;;;;;4.85;100.00;96173.72;10375572;28;20201;-57
2022/01/29 20:59:37;;;;;;;3.10;1.67;;;;;;;4.73;100.00;96167.00;10374208;28;20879;-62
2022/01/29 21:04:39;;;;;;;2.23;1.77;;;;;;;4.88;100.00;96168.25;10373996;28;20666;-62
2022/01/29 21:09:39;;;;;;;3.67;1.67;;;;;;;4.85;100.00;96154.75;10374715;28;20592;-63
2022/01/29 21:14:39;;;;;;;3.00;1.80;;;;;;;4.97;100.00;96159.66;10374144;28;20181;-63
2022/01/29 21:19:41;;;;;;;1.40;1.30;;;;;;;5.17;100.00;96170.06;10374642;28;20580;-63
2022/01/29 21:24:42;;;;;;;1.40;1.30;;;;;;;4.95;100.00;96182.34;10373425;28;20213;-64
2022/01/29 21:29:43;;;;;;;5.37;1.80;;;;;;;4.98;100.00;96176.06;10372794;28;20213;-64
2022/01/29 21:34:45;;;;;;;1.30;1.30;;;;;;;4.79;100.00;96182.88;10373435;28;20198;-63
2022/01/29 21:39:46;;;;;;;1.37;1.27;;;;;;;4.76;100.00;96179.72;10373485;28;20217;-64
2022/01/29 21:44:47;;;;;;;2.57;1.60;;;;;;;4.82;100.00;96194.75;10373637;28;20311;-64
2022/01/29 21:49:47;;;;;;;2.73;1.50;;;;;;;4.83;100.00;96214.56;10373031;28;20219;-65
2022/01/29 21:54:47;;;;;;;2.70;1.63;;;;;;;4.90;100.00;96209.66;10373177;28;20669;-62
2022/01/29 21:59:48;;;;;;;3.03;2.00;;;;;;;4.87;100.00;96225.50;10372715;28;20236;-64
2022/01/29 22:04:48;;;;;;;5.60;1.87;;;;;;;4.95;100.00;96234.25;10372133;28;20319;-63
2022/01/29 22:09:48;;;;;;;6.07;2.27;;;;;;;5.00;100.00;96224.28;10370996;28;20240;-64
2022/01/29 22:14:49;;;;;;;2.97;1.70;;;;;;;5.03;100.00;96199.03;10371753;28;20247;-64
2022/01/29 22:19:49;;;;;;;3.77;2.10;;;;;;;4.88;100.00;96212.38;10370744;28;20217;-63
2022/01/29 22:24:49;;;;;;;5.10;2.10;;;;;;;4.45;100.00;96203.91;10370847;28;20691;-64
2022/01/29 22:29:51;;;;;;;7.07;2.60;;;;;;;4.21;100.00;96200.81;10370989;28;20213;-62
2022/01/29 22:34:52;;;;;;;3.40;1.33;;;;;;;3.80;100.00;96241.38;10370105;28;20269;-64
2022/01/29 22:39:52;;;;;;;5.57;1.70;;;;;;;3.68;100.00;96248.41;10368278;28;20695;-64
2022/01/29 22:44:55;;;;;;;4.30;1.80;;;;;;;3.76;100.00;96256.34;10370106;28;20231;-64
2022/01/29 22:49:55;;;;;;;8.13;2.27;;;;;;;3.74;100.00;96261.66;10370856;28;20221;-64
2022/01/29 22:54:55;;;;;;;6.73;1.90;;;;;;;3.84;100.00;96253.94;10371201;28;20252;-64
2022/01/29 22:59:56;;;;;;;11.50;1.70;;;;;;;3.90;100.00;96271.59;10370843;28;20628;-64
2022/01/29 23:04:56;;;;;;;8.80;2.13;;;;;;;4.03;100.00;96283.56;10370381;28;20783;-62
2022/01/29 23:10:08;;;;;;;11.37;2.30;;;;;;;3.98;100.00;96270.13;10370395;28;20738;-62
2022/01/29 23:15:09;;;;;;;8.53;2.00;;;;;;;4.00;100.00;96263.06;10369929;28;20181;-62
2022/01/29 23:25:13;;;;;;;5.83;1.60;;;;;;;4.14;100.00;96264.53;10370284;28;20582;-62
2022/01/29 23:30:13;;;;;;;8.23;1.77;;;;;;;4.18;100.00;96251.19;10369967;28;20218;-58